Pagrindinis puslapis
METAR-TAF:

METAR-TAF

Oro uostai :

Jekaterinburgas, Rusija

platuma: 56-50N, ilguma: 060-38E, Aukštis: 237 m

Dabartinis oras

Ataskaita buvo paskelbta 20 minutes, ne 20:30 UTC
Vėjas 8 kt iš Pietų/Pietvakarių
Temperatūra 0°C
Drėgmė 74%
Slėgis 1017 hPa
Matomumas 10 km arba daugiau
nėra debesų žemiau 1500 m ir nėra kamuolinių lietaus debesų

METAR: USSS 092030Z 20004MPS CAVOK M00/M04 Q1017 R26R/190050 NOSIG RMK QFE742/0989

Laikas: 01:50 (20:50 UTC)

Prognozė

Ataskaita buvo paskelbta 57 minutes, ne 19:53 UTC
Prognozė galioja nuo 09 metu 21 UTC su 10 metu 21 UTC
Vėjas 6 kt iš Pietvakarių su gūsio iki 21 kt
Matomumas 10 km arba daugiau
Su prošvaistėmis ne aukštis 2000 ft
Tapsmas
nuo 10 metu 06 UTC su 10 metu 08 UTC
Vėjas 10 kt iš Vakarų/Pietvakarių su gūsio iki 25 kt
Tapsmas
nuo 10 metu 12 UTC su 10 metu 14 UTC
Matomumas: 3100 m
Su prošvaistėmis ne aukštis 1100 ft
sniegas, rūkana

TAF: USSS 091953Z 0921/1021 22003G11MPS 9999 BKN020 BECMG 1006/1008 24005G13MPS BECMG 1012/1014 3100 -SN BR BKN011

Orai ataskaitas ir orų prognozės (METAR, TAF).

turimą stotys yra geltonos ir raudonos taškus žemėlapyje.

Perkelti pele per norėdami pamatyti stoties vardą.

Tada spustelėkite, norėdami matyti oro stebėjimo ir prognozės.

Norėdami pakeisti žemėlapį: spustelėkite ant žalios mygtukų su juodo kryžiaus žemyn,; žalią mygtuką su brūkšneliu, jei norite nutolinti; arba žalių rodyklių gretimoms žemėlapius.


METAR-TAF: